Time;durP1;ratioP1;P1;durP2;ratioP2;P2;SDS_P1;SDS_P2;PMS_P1;PMS_P2;Temp;Humidity;BMP_temperature;BMP_pressure;BME280_temperature;BME280_humidity;BME280_pressure;Samples;Min_cycle;Max_cycle;Signal;HPM_P1;HPM_P2
2023/10/22 00:00:59;;;;;;;6.40;2.37;;;13.40;91.10;;;14.87;62.77;99930.56;3080398;46;21126;-66
2023/10/22 00:03:27;;;;;;;2.03;1.70;;;13.40;91.00;;;14.87;62.70;99935.06;3080151;46;21074;-65
2023/10/22 00:05:56;;;;;;;3.50;2.20;;;13.40;91.00;;;14.85;62.66;99927.34;3080593;46;20465;-66
2023/10/22 00:08:24;;;;;;;5.37;2.07;;;13.40;91.00;;;14.85;62.70;99934.47;3080410;46;21006;-67
2023/10/22 00:10:53;;;;;;;4.87;2.83;;;13.40;91.10;;;14.82;62.87;99933.06;3079985;46;20439;-66
2023/10/22 00:13:21;;;;;;;3.33;1.70;;;13.40;91.00;;;14.81;62.60;99936.75;3080538;46;20444;-67
2023/10/22 00:15:50;;;;;;;4.67;2.17;;;13.40;91.00;;;14.80;62.44;99940.44;3080670;46;20584;-67
2023/10/22 00:18:18;;;;;;;3.40;1.60;;;13.40;91.00;;;14.80;62.38;99945.72;3080230;46;20431;-66
2023/10/22 00:20:46;;;;;;;2.17;1.50;;;13.30;90.90;;;14.80;62.50;99940.44;3080259;46;20595;-67
2023/10/22 00:23:15;;;;;;;5.23;1.83;;;13.30;90.90;;;14.76;62.49;99944.53;3079382;46;20427;-65
2023/10/22 00:25:43;;;;;;;3.37;1.67;;;13.30;90.90;;;14.75;62.37;99942.94;3080581;46;21093;-66
2023/10/22 00:28:12;;;;;;;2.90;1.80;;;13.30;90.90;;;14.75;62.65;99948.22;3080146;46;20431;-66
2023/10/22 00:30:40;;;;;;;3.63;1.80;;;13.30;90.90;;;14.72;62.68;99946.00;3082115;46;20450;-67
2023/10/22 00:33:09;;;;;;;4.63;1.83;;;13.30;90.90;;;14.70;62.45;99942.78;3082589;46;20615;-66
2023/10/22 00:35:37;;;;;;;4.20;1.60;;;13.20;90.90;;;14.68;62.77;99947.50;3083164;46;20427;-67
2023/10/22 00:38:05;;;;;;;3.27;1.37;;;13.20;90.90;;;14.65;62.78;99953.22;3082464;46;20480;-67
2023/10/22 00:40:34;;;;;;;3.47;1.80;;;13.20;90.90;;;14.65;62.76;99947.13;3082271;46;20438;-67
2023/10/22 00:43:06;;;;;;;3.37;1.77;;;13.20;90.90;;;14.61;62.56;99949.41;3081970;46;21040;-64
2023/10/22 00:45:38;;;;;;;3.20;1.90;;;13.20;90.90;;;14.59;62.92;99943.53;3082433;46;20549;-68
2023/10/22 00:48:09;;;;;;;3.50;2.17;;;13.10;90.90;;;14.59;62.66;99948.81;3082017;46;20455;-65
2023/10/22 00:50:39;;;;;;;2.63;1.80;;;13.10;90.90;;;14.59;62.78;99948.81;3081507;46;20564;-67
2023/10/22 00:53:12;;;;;;;4.67;1.70;;;13.10;90.90;;;14.58;62.88;99955.13;3082142;46;21012;-66
2023/10/22 00:55:47;;;;;;;5.80;2.10;;;13.10;91.00;;;14.56;62.64;99949.25;3082611;46;20546;-67
2023/10/22 00:58:20;;;;;;;6.30;1.57;;;13.10;91.00;;;14.54;62.94;99953.97;3082242;46;20455;-68
2023/10/22 01:00:48;;;;;;;2.97;1.63;;;13.10;91.00;;;14.53;63.06;99949.69;3082157;46;20511;-67
2023/10/22 01:03:18;;;;;;;5.03;2.03;;;13.10;91.00;;;14.51;63.09;99935.84;3081496;46;20500;-66
2023/10/22 01:05:47;;;;;;;5.17;1.33;;;13.10;91.10;;;14.49;62.96;99943.22;3082667;46;20432;-67
2023/10/22 01:08:16;;;;;;;2.57;1.73;;;13.00;91.00;;;14.47;62.80;99944.47;3082468;46;20448;-66
2023/10/22 01:10:44;;;;;;;4.67;1.50;;;13.00;91.10;;;14.45;62.77;99939.41;3082120;46;20439;-67
2023/10/22 01:13:14;;;;;;;4.80;1.70;;;13.00;91.10;;;14.42;62.98;99941.66;3082133;46;20431;-66
2023/10/22 01:15:43;;;;;;;3.67;1.60;;;13.00;91.10;;;14.38;63.15;99938.63;3082106;46;20449;-67
2023/10/22 01:18:12;;;;;;;2.07;1.50;;;13.00;91.10;;;14.37;63.31;99938.84;3082417;46;20476;-67
2023/10/22 01:20:41;;;;;;;2.93;1.70;;;12.90;91.10;;;14.36;63.25;99942.53;3081700;46;20443;-67
2023/10/22 01:23:09;;;;;;;4.73;1.70;;;12.90;91.20;;;14.35;63.47;99947.03;3082195;46;21040;-67
2023/10/22 01:25:38;;;;;;;5.20;2.33;;;12.90;91.30;;;14.33;63.05;99942.97;3082155;46;20546;-67
2023/10/22 01:28:06;;;;;;;5.30;1.90;;;12.90;91.20;;;14.30;63.25;99948.66;3082105;46;20472;-67
2023/10/22 01:30:35;;;;;;;5.40;1.87;;;12.80;91.20;;;14.26;63.70;99948.31;3081809;46;20593;-66
2023/10/22 01:33:06;;;;;;;2.40;1.63;;;12.80;91.30;;;14.25;63.70;99951.97;3081669;46;20507;-65
2023/10/22 01:35:35;;;;;;;2.93;1.60;;;12.80;91.30;;;14.21;63.77;99948.94;3082348;46;20453;-67
2023/10/22 01:38:04;;;;;;;3.77;1.73;;;12.80;91.30;;;14.20;63.50;99949.97;3081635;46;20431;-68
2023/10/22 01:40:32;;;;;;;6.07;1.70;;;12.80;91.40;;;14.18;63.38;99951.22;3080920;46;20470;-67
2023/10/22 01:43:00;;;;;;;3.33;1.73;;;12.70;91.30;;;14.15;63.94;99941.06;3081879;46;20426;-64
2023/10/22 01:45:29;;;;;;;3.03;1.60;;;12.70;91.40;;;14.14;63.67;99947.41;3081743;46;20454;-66
2023/10/22 01:47:57;;;;;;;3.53;1.40;;;12.70;91.40;;;14.13;64.04;99951.88;3081752;46;20478;-66
2023/10/22 01:50:26;;;;;;;3.10;1.77;;;12.70;91.50;;;14.10;64.15;99951.47;3081643;46;20450;-67
2023/10/22 01:52:54;;;;;;;4.87;1.67;;;12.70;91.50;;;14.11;63.66;99945.19;3081999;46;20431;-66
2023/10/22 01:55:23;;;;;;;5.30;2.07;;;12.60;91.50;;;14.10;63.83;99943.53;3082145;46;20636;-66
2023/10/22 01:57:51;;;;;;;5.17;1.70;;;12.60;91.50;;;14.10;63.79;99951.47;3082069;46;20581;-66
2023/10/22 02:00:20;;;;;;;3.63;1.83;;;12.60;91.60;;;14.09;63.75;99952.53;3081447;46;20596;-67
2023/10/22 02:02:49;;;;;;;4.60;1.60;;;12.60;91.60;;;14.07;64.04;99946.63;3081855;46;20481;-66
2023/10/22 02:05:17;;;;;;;6.73;1.60;;;12.60;91.50;;;14.07;63.80;99944.00;3080722;46;20506;-65
2023/10/22 02:07:46;;;;;;;7.10;1.63;;;12.60;91.60;;;14.07;64.24;99946.63;3082044;46;20557;-67
2023/10/22 02:10:14;;;;;;;4.53;1.70;;;12.60;91.50;;;14.08;64.06;99940.31;3081322;46;20495;-67
2023/10/22 02:12:42;;;;;;;3.23;1.57;;;12.60;91.90;;;14.09;63.60;99944.59;3081624;46;20439;-65
2023/10/22 02:15:11;;;;;;;2.93;1.90;;;12.60;91.60;;;14.09;64.08;99942.75;3081178;46;20527;-68
2023/10/22 02:17:39;;;;;;;8.47;1.73;;;12.60;91.60;;;14.11;63.81;99946.00;3081787;46;20517;-67
2023/10/22 02:20:10;;;;;;;5.03;1.67;;;12.60;91.60;;;14.10;63.45;99941.72;3080818;46;20451;-66
2023/10/22 02:22:38;;;;;;;3.40;1.17;;;12.60;91.60;;;14.08;63.77;99946.41;3080520;46;21073;-66
2023/10/22 02:25:07;;;;;;;3.10;1.40;;;12.60;91.50;;;14.09;63.82;99952.53;3080260;46;20450;-67
2023/10/22 02:27:35;;;;;;;5.73;2.27;;;12.60;91.50;;;14.08;63.75;99945.59;3081649;46;20455;-68
2023/10/22 02:30:05;;;;;;;4.10;1.40;;;12.60;91.50;;;14.07;63.54;99944.78;3081199;46;20589;-66
2023/10/22 02:32:33;;;;;;;3.60;1.47;;;12.60;91.50;;;14.06;63.56;99950.31;3081357;46;20423;-65
2023/10/22 02:35:02;;;;;;;4.07;1.60;;;12.60;91.50;;;14.04;63.50;99944.41;3081528;46;20541;-66
2023/10/22 02:37:30;;;;;;;4.60;1.27;;;12.60;91.80;;;14.04;63.64;99941.78;3080568;46;20452;-68
2023/10/22 02:39:59;;;;;;;4.40;1.90;;;12.60;91.50;;;14.04;63.53;99952.34;3081019;46;20439;-67
2023/10/22 02:42:27;;;;;;;3.00;1.20;;;12.60;91.50;;;14.03;63.86;99954.19;3081403;46;20428;-67
2023/10/22 02:44:56;;;;;;;3.00;1.43;;;12.60;91.50;;;14.02;64.09;99951.78;3080843;46;20549;-66
2023/10/22 02:47:25;;;;;;;4.40;1.50;;;12.60;91.50;;;14.01;63.96;99947.50;3081416;46;20436;-66
2023/10/22 02:49:54;;;;;;;2.07;1.10;;;12.60;91.40;;;13.99;63.73;99946.91;3080906;46;20439;-64
2023/10/22 02:52:22;;;;;;;4.13;1.70;;;12.50;91.40;;;13.97;63.83;99954.25;3080672;46;20466;-67
2023/10/22 02:54:51;;;;;;;2.93;1.50;;;12.50;91.40;;;13.96;63.75;99952.63;3081210;46;20567;-67
2023/10/22 02:57:20;;;;;;;5.10;1.50;;;12.50;91.50;;;13.96;64.16;99948.13;3081227;46;20470;-66
2023/10/22 02:59:48;;;;;;;3.10;1.27;;;12.50;91.80;;;13.96;63.71;99948.13;3081051;46;21118;-66
2023/10/22 03:02:16;;;;;;;2.33;1.57;;;12.50;91.50;;;13.94;63.95;99946.72;3081290;46;20564;-66
2023/10/22 03:04:45;;;;;;;2.83;1.20;;;12.50;91.50;;;13.95;64.29;99946.50;3081232;46;20501;-66
2023/10/22 03:07:13;;;;;;;2.90;1.33;;;12.50;91.50;;;13.96;63.69;99947.31;3080592;46;20446;-66
2023/10/22 03:09:42;;;;;;;6.93;1.40;;;12.50;91.50;;;13.96;63.83;99947.31;3080762;46;20444;-66
2023/10/22 03:12:11;;;;;;;3.33;1.50;;;12.50;91.50;;;13.95;63.82;99951.00;3081442;46;20459;-66
2023/10/22 03:14:40;;;;;;;2.70;1.27;;;12.50;91.50;;;13.94;63.99;99944.91;3081188;46;20451;-67
2023/10/22 03:17:08;;;;;;;1.80;1.10;;;12.50;91.50;;;13.95;63.89;99943.06;3080972;46;20481;-67
2023/10/22 03:19:37;;;;;;;2.87;1.47;;;12.50;91.50;;;13.94;64.10;99938.78;3080870;46;20461;-67
2023/10/22 03:22:08;;;;;;;2.77;1.50;;;12.50;91.60;;;13.93;64.12;99943.28;3080416;46;20545;-67
2023/10/22 03:24:36;;;;;;;2.87;1.50;;;12.50;91.60;;;13.92;63.81;99940.84;3080143;46;20499;-67
2023/10/22 03:27:05;;;;;;;4.00;1.43;;;12.50;91.60;;;13.92;64.25;99940.84;3081276;46;20427;-66
2023/10/22 03:29:38;;;;;;;3.87;1.43;;;12.40;91.60;;;13.91;63.88;99944.50;3080075;46;21026;-69
2023/10/22 03:32:09;;;;;;;3.60;1.50;;;12.40;91.60;;;13.89;63.98;99946.56;3079795;46;20423;-65
2023/10/22 03:34:37;;;;;;;3.00;1.30;;;12.40;91.60;;;13.89;64.13;99951.84;3080611;46;20431;-66
2023/10/22 03:37:08;;;;;;;4.33;1.50;;;12.40;91.60;;;13.87;64.03;99954.72;3080514;46;20428;-67
2023/10/22 03:39:37;;;;;;;3.57;1.30;;;12.40;91.70;;;13.86;64.35;99953.09;3079803;46;20502;-66
2023/10/22 03:42:05;;;;;;;3.23;1.60;;;12.40;91.70;;;13.84;64.22;99951.69;3080816;46;21120;-68
2023/10/22 03:44:34;;;;;;;2.93;1.20;;;12.40;91.70;;;13.82;64.27;99956.38;3080221;46;20512;-65
2023/10/22 03:47:03;;;;;;;4.93;1.40;;;12.40;91.70;;;13.80;64.37;99947.88;3080909;43;20522;-66
2023/10/22 03:49:31;;;;;;;5.77;1.20;;;12.40;91.70;;;13.78;64.13;99961.31;3080337;46;20463;-68
2023/10/22 03:52:00;;;;;;;4.47;1.30;;;12.40;91.70;;;13.77;64.24;99966.78;3080920;46;20435;-66
2023/10/22 03:54:28;;;;;;;3.47;1.40;;;12.30;91.60;;;13.75;64.61;99961.72;3081118;46;20545;-65
2023/10/22 03:56:56;;;;;;;5.30;1.73;;;12.30;91.70;;;13.74;64.44;99970.69;3081063;46;20428;-66
2023/10/22 03:59:25;;;;;;;4.23;0.90;;;12.30;91.70;;;13.74;64.47;99975.19;3080330;46;20439;-66
2023/10/22 04:01:55;;;;;;;3.37;1.20;;;12.30;91.70;;;13.75;64.69;99977.59;3078945;46;20540;-66
2023/10/22 04:04:24;;;;;;;4.87;1.40;;;12.30;91.80;;;13.75;64.44;99968.84;3082148;46;20500;-67
2023/10/22 04:06:52;;;;;;;3.43;1.30;;;12.30;91.80;;;13.75;64.50;99974.13;3083137;46;20428;-66
2023/10/22 04:09:20;;;;;;;1.97;1.27;;;12.30;91.80;;;13.75;64.24;99976.78;3082494;46;20476;-66
2023/10/22 04:11:49;;;;;;;2.90;1.00;;;12.30;91.90;;;13.76;64.76;99967.84;3082988;46;20525;-66
2023/10/22 04:14:17;;;;;;;3.73;1.20;;;12.30;91.90;;;13.74;64.60;99975.19;3083153;46;20552;-67
2023/10/22 04:16:46;;;;;;;5.17;1.60;;;12.30;91.80;;;13.74;64.22;99977.81;3082799;46;20451;-68
2023/10/22 04:19:14;;;;;;;5.00;2.00;;;12.30;91.90;;;13.73;64.30;99974.38;3082620;46;20509;-65
2023/10/22 04:21:42;;;;;;;2.97;1.30;;;12.30;91.90;;;13.71;64.63;99976.41;3083235;46;21140;-66
2023/10/22 04:24:11;;;;;;;5.60;1.30;;;12.30;91.90;;;13.73;64.42;99978.84;3082637;46;20489;-66
2023/10/22 04:26:39;;;;;;;4.13;1.27;;;12.20;91.80;;;13.75;64.45;99977.59;3082835;46;20508;-67
2023/10/22 04:29:08;;;;;;;5.40;1.60;;;12.30;92.00;;;13.75;64.46;99977.59;3082336;46;20427;-66
2023/10/22 04:31:36;;;;;;;2.67;1.30;;;12.30;91.90;;;13.74;64.28;99975.97;3083061;46;20500;-68
2023/10/22 04:34:04;;;;;;;6.90;1.70;;;12.30;91.90;;;13.73;64.39;99984.13;3082961;46;20541;-67
2023/10/22 04:36:33;;;;;;;4.10;1.80;;;12.30;91.90;;;13.71;64.80;99975.59;3082183;46;20427;-69
2023/10/22 04:39:01;;;;;;;3.73;1.40;;;12.30;91.80;;;13.73;64.76;99978.84;3082345;46;21052;-68
2023/10/22 04:41:30;;;;;;;3.10;1.27;;;12.30;91.90;;;13.73;64.63;99978.84;3082943;46;20508;-68
2023/10/22 04:43:58;;;;;;;3.43;1.37;;;12.30;91.90;;;13.76;64.28;99983.72;3082018;46;20427;-66
2023/10/22 04:46:26;;;;;;;3.13;1.70;;;12.30;91.90;;;13.76;64.57;99989.00;3082593;46;20572;-67
2023/10/22 04:48:55;;;;;;;2.73;1.30;;;12.30;91.90;;;13.76;64.61;99986.34;3082611;46;20448;-65
2023/10/22 04:51:24;;;;;;;3.50;1.10;;;12.30;91.90;;;13.77;64.45;99980.03;3081871;46;20500;-66
2023/10/22 04:53:52;;;;;;;3.60;1.37;;;12.30;91.80;;;13.78;64.61;99989.59;3082870;46;20540;-67
2023/10/22 04:56:20;;;;;;;1.13;0.87;;;12.30;91.80;;;13.79;64.45;99983.25;3083136;46;21124;-66
2023/10/22 04:58:49;;;;;;;2.30;1.30;;;12.30;91.90;;;13.79;64.17;99981.44;3081715;46;20605;-67
2023/10/22 05:01:17;;;;;;;3.10;1.27;;;12.30;91.90;;;13.80;64.68;99983.06;3082809;46;20522;-68
2023/10/22 05:03:46;;;;;;;4.33;1.50;;;12.30;91.80;;;13.81;64.36;99986.53;3082513;46;20454;-67
2023/10/22 05:06:14;;;;;;;3.03;1.50;;;12.30;91.80;;;13.82;64.17;99982.84;3082537;46;20443;-67
2023/10/22 05:08:43;;;;;;;1.87;1.00;;;12.30;91.80;;;13.84;64.57;99981.59;3082351;46;21123;-67
2023/10/22 05:11:17;;;;;;;3.80;1.50;;;12.30;91.90;;;13.85;64.60;99987.72;3081981;46;20482;-65
2023/10/22 05:13:46;;;;;;;3.43;1.20;;;12.30;91.90;;;13.87;64.54;99977.72;3082260;46;20431;-67
2023/10/22 05:16:14;;;;;;;3.00;1.10;;;12.40;91.90;;;13.87;64.50;99985.66;3081574;46;20428;-66
2023/10/22 05:18:43;;;;;;;4.80;1.40;;;12.40;91.90;;;13.90;64.52;99985.22;3082151;46;20456;-66
2023/10/22 05:21:11;;;;;;;3.43;1.33;;;12.40;91.90;;;13.91;64.39;99992.13;3082069;46;20454;-66
2023/10/22 05:23:40;;;;;;;3.80;1.33;;;12.40;91.90;;;13.87;64.31;100002.34;3082517;46;20890;-67
2023/10/22 05:26:12;;;;;;;5.33;1.57;;;12.40;91.80;;;13.84;64.59;100009.88;3081783;46;20463;-66
2023/10/22 05:28:41;;;;;;;3.90;1.27;;;12.40;91.80;;;13.86;64.30;100013.16;3081759;46;20432;-66
2023/10/22 05:31:19;;;;;;;3.83;1.20;;;12.50;91.80;;;13.84;64.50;100013.34;3080623;46;21101;-68
2023/10/22 05:33:48;;;;;;;1.90;1.30;;;12.50;91.80;;;13.90;64.70;100014.34;3081097;46;20994;-67
2023/10/22 05:36:21;;;;;;;2.67;1.03;;;12.50;91.80;;;13.93;64.60;100016.56;3082416;46;20472;-69
2023/10/22 05:38:50;;;;;;;2.50;1.13;;;12.50;91.90;;;13.94;64.46;100026.09;3081540;46;20483;-68
2023/10/22 05:41:26;;;;;;;2.90;1.23;;;12.50;91.90;;;13.94;64.78;100024.28;3082123;46;20549;-66
2023/10/22 05:44:00;;;;;;;2.63;1.27;;;12.50;91.90;;;14.00;64.30;100027.91;3081971;46;20991;-67
2023/10/22 05:46:33;;;;;;;1.80;0.93;;;12.50;91.90;;;14.04;64.20;100029.91;3082168;46;20451;-67
2023/10/22 05:49:03;;;;;;;2.87;1.03;;;12.50;91.90;;;14.07;64.57;100032.09;3081684;46;20456;-67
2023/10/22 05:51:34;;;;;;;3.27;1.10;;;12.50;91.90;;;14.06;64.25;100027.03;3081118;46;21013;-69
2023/10/22 05:54:03;;;;;;;5.40;1.50;;;12.60;91.90;;;14.07;64.64;100034.75;3081650;46;20431;-66
2023/10/22 05:56:32;;;;;;;6.73;1.20;;;12.60;91.90;;;14.10;64.64;100038.81;3082271;46;21083;-66
2023/10/22 05:59:04;;;;;;;4.37;1.00;;;12.60;91.90;;;14.13;64.44;100044.50;3081447;46;20428;-64
2023/10/22 06:01:32;;;;;;;2.30;1.07;;;12.60;91.90;;;14.17;64.27;100045.69;3082374;46;20431;-69
2023/10/22 06:04:01;;;;;;;1.50;1.00;;;12.60;91.90;;;14.18;64.25;100036.72;3081613;46;21160;-66
2023/10/22 06:06:30;;;;;;;5.70;1.60;;;12.70;91.90;;;14.19;64.32;100037.53;3081959;46;20428;-66
2023/10/22 06:08:58;;;;;;;2.97;1.03;;;12.70;91.90;;;14.20;64.36;100044.44;3081180;46;20998;-68
2023/10/22 06:11:27;;;;;;;4.17;1.40;;;12.70;91.90;;;14.21;64.50;100046.09;3081996;46;21118;-66
2023/10/22 06:13:56;;;;;;;2.60;1.40;;;12.80;91.90;;;14.24;64.38;100048.28;3081853;46;20455;-66
2023/10/22 06:16:24;;;;;;;4.57;1.50;;;12.80;91.90;;;14.35;64.75;100047.63;3081587;46;20427;-68
2023/10/22 06:18:53;;;;;;;3.50;1.43;;;12.80;91.90;;;14.34;64.27;100048.63;3080928;46;20564;-68
2023/10/22 06:21:22;;;;;;;4.60;1.10;;;12.90;91.90;;;14.36;64.57;100054.53;3081479;46;20436;-67
2023/10/22 06:23:51;;;;;;;3.57;1.10;;;12.90;91.90;;;14.46;64.65;100065.44;3081725;46;21101;-66
2023/10/22 06:26:19;;;;;;;2.30;1.10;;;13.10;92.00;;;14.57;63.98;100062.09;3081169;46;20466;-66
2023/10/22 06:28:48;;;;;;;4.33;1.37;;;13.10;91.90;;;14.67;64.00;100072.19;3081140;46;20456;-66
2023/10/22 06:31:17;;;;;;;5.30;1.30;;;13.20;91.90;;;14.78;63.52;100067.03;3080992;46;20467;-69
2023/10/22 06:33:45;;;;;;;3.27;0.90;;;13.30;91.70;;;14.85;63.44;100078.38;3081356;46;21044;-67
2023/10/22 06:36:18;;;;;;;2.37;1.10;;;13.40;91.50;;;14.98;63.19;100085.34;3081537;46;20986;-67
2023/10/22 06:38:48;;;;;;;3.13;1.20;;;13.50;91.50;;;15.02;62.84;100080.44;3081008;46;21088;-67
2023/10/22 06:41:22;;;;;;;3.73;1.20;;;13.60;91.30;;;15.13;63.07;100098.25;3081292;46;20512;-68
2023/10/22 06:43:51;;;;;;;1.53;0.77;;;13.70;91.30;;;15.15;62.90;100091.72;3081343;46;20500;-67
2023/10/22 06:46:20;;;;;;;1.43;0.97;;;13.80;91.10;;;15.24;62.76;100105.47;3081053;46;21078;-67
2023/10/22 06:48:49;;;;;;;2.20;1.17;;;13.80;91.10;;;15.29;62.23;100106.44;3081471;46;20572;-66
2023/10/22 06:51:18;;;;;;;4.73;0.80;;;13.80;90.90;;;15.34;62.26;100097.81;3081603;46;20552;-67
2023/10/22 06:53:47;;;;;;;4.70;1.30;;;13.90;90.90;;;15.40;62.37;100110.22;3081372;46;20435;-66
2023/10/22 06:56:16;;;;;;;2.80;1.07;;;14.00;90.90;;;15.41;62.17;100111.81;3081671;46;20908;-67
2023/10/22 06:58:46;;;;;;;2.37;0.90;;;14.00;90.80;;;15.44;61.93;100117.53;3081195;46;20513;-66
2023/10/22 07:01:15;;;;;;;2.27;1.07;;;14.00;91.10;;;15.47;61.95;100110.97;3080645;46;20442;-67
2023/10/22 07:03:45;;;;;;;2.67;1.00;;;14.10;90.70;;;15.48;61.88;100117.88;3081566;46;20520;-68
2023/10/22 07:06:15;;;;;;;3.80;1.30;;;14.10;90.70;;;15.53;62.01;100118.84;3081429;46;20448;-67
2023/10/22 07:08:45;;;;;;;1.73;1.10;;;14.10;90.70;;;15.58;62.26;100120.84;3081076;46;20423;-67
2023/10/22 07:11:13;;;;;;;3.07;1.10;;;14.20;90.70;;;15.66;61.67;100125.84;3080708;46;20531;-67
2023/10/22 07:13:41;;;;;;;2.03;1.00;;;14.20;90.70;;;15.64;61.86;100121.81;3081051;46;20483;-67
2023/10/22 07:16:10;;;;;;;4.13;1.60;;;14.20;90.60;;;15.65;61.92;100132.19;3081151;46;20455;-67
2023/10/22 07:18:39;;;;;;;2.87;0.87;;;14.30;90.70;;;15.59;62.17;100133.09;3080414;46;20431;-67
2023/10/22 07:21:07;;;;;;;3.30;1.20;;;14.30;90.60;;;15.69;61.90;100133.34;3080747;46;20940;-67
2023/10/22 07:23:36;;;;;;;5.13;0.80;;;14.30;90.70;;;15.72;62.13;100146.19;3081273;46;20501;-67
2023/10/22 07:26:04;;;;;;;5.73;1.07;;;14.30;90.60;;;15.74;62.12;100144.09;3080889;46;20427;-67
2023/10/22 07:28:33;;;;;;;2.20;1.03;;;14.40;90.80;;;15.70;62.43;100145.59;3079986;46;20458;-68
2023/10/22 07:31:01;;;;;;;3.77;1.30;;;14.40;90.90;;;15.68;63.00;100147.66;3080589;46;21112;-66
2023/10/22 07:33:30;;;;;;;1.87;1.20;;;14.40;91.10;;;15.62;63.74;100161.81;3080582;46;21029;-69
2023/10/22 07:36:07;;;;;;;2.37;1.30;;;14.40;91.40;;;15.59;64.40;100162.25;3081113;46;20439;-67
2023/10/22 07:38:38;;;;;;;1.83;1.13;;;14.40;91.90;;;15.52;65.20;100169.47;3081160;46;20455;-67
2023/10/22 07:41:15;;;;;;;3.77;1.37;;;14.40;92.20;;;15.44;66.29;100167.06;3082697;46;20471;-67
2023/10/22 07:43:44;;;;;;;3.43;1.03;;;14.30;92.60;;;15.39;66.63;100172.22;3083289;46;20451;-66
2023/10/22 07:46:15;;;;;;;3.37;1.10;;;14.30;92.70;;;15.32;67.28;100179.44;3082786;46;20427;-66
2023/10/22 07:48:45;;;;;;;5.50;1.20;;;14.20;93.20;;;15.25;67.79;100176.84;3083145;46;20438;-67
2023/10/22 07:51:17;;;;;;;3.40;1.33;;;14.10;93.40;;;15.12;69.22;100184.13;3083065;46;20458;-67
2023/10/22 07:53:47;;;;;;;4.00;1.20;;;14.10;94.00;;;15.01;69.99;100190.13;3083643;46;20446;-65
2023/10/22 07:56:20;;;;;;;4.27;1.27;;;14.00;94.20;;;14.93;70.31;100190.41;3082805;46;20579;-66
2023/10/22 07:58:48;;;;;;;2.20;1.20;;;13.90;94.50;;;14.87;70.63;100190.25;3083094;46;20423;-67
2023/10/22 08:01:19;;;;;;;3.03;1.27;;;13.80;94.70;;;14.85;71.13;100194.94;3082907;46;20439;-67
2023/10/22 08:03:49;;;;;;;2.50;1.33;;;13.70;95.00;;;14.84;70.87;100198.63;3083304;46;20580;-67
2023/10/22 08:06:18;;;;;;;4.00;1.47;;;13.70;95.10;;;14.85;71.15;100202.91;3083412;46;20426;-66
2023/10/22 08:08:47;;;;;;;3.30;1.33;;;13.60;95.30;;;14.84;71.21;100201.25;3082470;46;20511;-68
2023/10/22 08:11:15;;;;;;;4.17;1.30;;;13.60;95.30;;;14.80;71.98;100204.56;3082097;46;21028;-67
2023/10/22 08:13:44;;;;;;;2.33;1.30;;;13.60;95.70;;;14.76;72.06;100206.81;3083197;46;20431;-67
2023/10/22 08:16:12;;;;;;;4.70;1.60;;;13.50;96.00;;;14.72;72.84;100221.53;3082685;46;20452;-67
2023/10/22 08:18:42;;;;;;;1.63;1.23;;;13.50;96.20;;;14.71;72.74;100214.59;3082448;46;20505;-68
2023/10/22 08:21:10;;;;;;;2.10;1.50;;;13.50;96.20;;;14.73;72.82;100219.69;3082962;46;20447;-67
2023/10/22 08:23:39;;;;;;;2.60;1.30;;;13.50;96.40;;;14.77;72.65;100221.69;3082443;46;20426;-64
2023/10/22 08:26:07;;;;;;;2.90;1.47;;;13.50;96.40;;;14.78;72.53;100228.63;3083217;46;21004;-67
2023/10/22 08:28:37;;;;;;;4.67;1.43;;;13.50;96.60;;;14.81;72.74;100232.66;3082606;46;20455;-68
2023/10/22 08:31:06;;;;;;;2.93;1.40;;;13.50;96.60;;;14.80;72.84;100231.88;3082509;46;21066;-65
2023/10/22 08:33:34;;;;;;;3.20;1.60;;;13.50;96.70;;;14.84;72.64;100238.34;3082550;46;21032;-68
2023/10/22 08:36:06;;;;;;;2.87;1.83;;;13.50;96.70;;;14.86;73.03;100240.78;3082763;46;20552;-69
2023/10/22 08:38:35;;;;;;;4.07;1.50;;;13.50;96.80;;;14.95;72.79;100244.00;3081542;46;21102;-67
2023/10/22 08:41:06;;;;;;;2.33;1.70;;;13.50;96.70;;;15.00;72.42;100252.13;3082457;46;20463;-66
2023/10/22 08:43:38;;;;;;;4.77;2.17;;;13.60;96.80;;;15.08;72.30;100257.16;3082072;46;20427;-66
2023/10/22 08:46:07;;;;;;;2.83;1.87;;;13.60;96.80;;;15.14;72.07;100264.25;3081772;46;20424;-67
2023/10/22 08:48:37;;;;;;;3.17;1.40;;;13.60;96.70;;;15.24;71.79;100264.56;3081376;46;20644;-68
2023/10/22 08:51:08;;;;;;;3.63;1.67;;;13.70;96.70;;;15.35;71.62;100271.81;3081442;46;20497;-68
2023/10/22 08:53:37;;;;;;;3.53;2.03;;;13.70;96.70;;;15.30;71.64;100279.63;3082357;46;21066;-66
2023/10/22 08:56:06;;;;;;;2.00;1.80;;;13.80;96.60;;;15.38;71.55;100285.44;3082861;46;20455;-66
2023/10/22 08:58:34;;;;;;;2.47;2.20;;;13.90;96.60;;;15.45;71.08;100304.00;3082189;46;20434;-67
2023/10/22 09:01:03;;;;;;;2.63;1.80;;;13.90;96.50;;;15.53;71.14;100317.81;3082232;46;20463;-68
2023/10/22 09:03:32;;;;;;;2.73;2.07;;;13.90;96.50;;;15.59;70.81;100316.13;3082674;46;20431;-67
2023/10/22 09:06:01;;;;;;;2.90;2.27;;;14.00;96.40;;;15.65;70.45;100323.22;3082450;46;20460;-66
2023/10/22 09:08:45;;;;;;;2.87;1.73;;;14.00;96.40;;;15.64;70.03;100324.25;3082060;46;21117;-66
2023/10/22 09:11:16;;;;;;;4.30;2.43;;;14.00;96.20;;;15.69;70.05;100332.34;3081801;46;20459;-67
2023/10/22 09:13:45;;;;;;;2.80;2.30;;;14.00;96.20;;;15.70;69.89;100334.00;3082373;46;20435;-70
2023/10/22 09:16:31;;;;;;;2.93;1.97;;;14.00;96.00;;;15.68;69.77;100341.34;3082152;46;21028;-66
2023/10/22 09:19:02;;;;;;;2.57;2.00;;;14.00;95.90;;;15.73;69.59;100341.53;3082109;46;20473;-67
2023/10/22 09:21:44;;;;;;;2.17;1.97;;;14.10;95.80;;;15.74;69.36;100339.66;3082548;46;20427;-67
2023/10/22 09:24:13;;;;;;;2.50;1.70;;;14.10;95.70;;;15.78;68.97;100339.03;3082511;46;21082;-67
2023/10/22 09:26:48;;;;;;;3.73;2.17;;;14.10;95.60;;;15.81;68.47;100341.22;3081507;46;21104;-67
2023/10/22 09:29:16;;;;;;;3.87;2.10;;;14.10;95.50;;;15.78;68.19;100347.00;3082031;46;21064;-67
2023/10/22 09:31:54;;;;;;;3.33;2.00;;;14.10;95.20;;;15.79;68.30;100359.22;3082237;46;20459;-68
2023/10/22 09:34:34;;;;;;;4.23;1.90;;;14.20;95.20;;;15.87;68.18;100356.28;3082139;46;20435;-67
2023/10/22 09:37:03;;;;;;;5.23;1.80;;;14.20;95.30;;;15.93;67.65;100355.41;3081655;46;21140;-69
2023/10/22 09:39:43;;;;;;;5.23;2.00;;;14.20;95.10;;;15.97;67.74;100361.09;3081333;46;20451;-67
2023/10/22 09:42:14;;;;;;;4.03;2.13;;;14.30;95.10;;;16.06;67.61;100370.41;3081472;46;20427;-68
2023/10/22 09:44:45;;;;;;;3.03;1.80;;;14.30;95.00;;;15.99;67.43;100370.47;3081659;46;20451;-67
2023/10/22 09:47:22;;;;;;;2.37;1.47;;;14.30;94.60;;;16.00;66.98;100377.41;3082131;46;20513;-68
2023/10/22 09:50:06;;;;;;;2.50;1.40;;;14.40;94.40;;;15.98;66.47;100368.84;3081275;46;20470;-66
2023/10/22 09:52:42;;;;;;;2.23;1.33;;;14.40;94.30;;;16.04;66.56;100373.28;3081242;46;20431;-67
2023/10/22 09:55:14;;;;;;;1.77;1.20;;;14.30;93.90;;;16.09;66.24;100370.75;3081539;46;20480;-68
2023/10/22 09:57:46;;;;;;;6.63;1.80;;;14.40;94.00;;;16.14;65.83;100381.53;3081418;46;20427;-67
2023/10/22 10:00:17;;;;;;;1.87;1.73;;;14.40;93.70;;;16.15;64.61;100380.53;3080499;46;21006;-67
2023/10/22 10:02:45;;;;;;;1.70;1.20;;;14.40;93.20;;;16.18;64.88;100384.59;3080606;46;21089;-68
2023/10/22 10:05:14;;;;;;;1.93;1.30;;;14.40;92.90;;;16.19;64.36;100392.31;3081093;46;21029;-67
2023/10/22 10:07:43;;;;;;;3.33;1.33;;;14.50;92.80;;;16.15;63.46;100391.16;3081062;46;21024;-66
2023/10/22 10:10:12;;;;;;;4.53;1.63;;;14.50;92.30;;;16.22;63.71;100399.88;3081235;46;20581;-68
2023/10/22 10:12:42;;;;;;;2.00;1.47;;;14.50;92.50;;;16.31;63.74;100411.00;3081507;46;20435;-67
2023/10/22 10:15:35;;;;;;;3.50;1.53;;;14.60;92.60;;;16.36;63.95;100413.00;3081919;46;20425;-67
2023/10/22 10:18:06;;;;;;;2.60;1.30;;;14.60;92.70;;;16.47;63.67;100415.75;3081822;46;20435;-68
2023/10/22 10:20:39;;;;;;;2.97;1.63;;;14.70;92.70;;;16.54;63.38;100410.41;3080494;46;20439;-67
2023/10/22 10:23:11;;;;;;;5.23;2.00;;;14.70;92.70;;;16.55;63.30;100406.69;3081189;46;20424;-67
2023/10/22 10:25:41;;;;;;;7.60;1.90;;;14.80;92.60;;;16.54;63.51;100416.53;3080827;46;20616;-65